sensor_id;sensor_type;location;lat;lon;timestamp;pressure;altitude;pressure_sealevel;temperature;humidity
37368;BME280;23240;43.210;27.910;2023-04-26T00:01:10;100097.47;;;12.23;100.00
37368;BME280;23240;43.210;27.910;2023-04-26T00:03:36;100093.31;;;12.29;100.00
37368;BME280;23240;43.210;27.910;2023-04-26T00:06:01;100097.41;;;12.33;100.00
37368;BME280;23240;43.210;27.910;2023-04-26T00:08:32;100104.00;;;12.39;100.00
37368;BME280;23240;43.210;27.910;2023-04-26T00:10:58;100095.47;;;12.43;100.00
37368;BME280;23240;43.210;27.910;2023-04-26T00:13:23;100093.31;;;12.47;100.00
37368;BME280;23240;43.210;27.910;2023-04-26T00:15:49;100094.03;;;12.49;100.00
37368;BME280;23240;43.210;27.910;2023-04-26T00:18:14;100098.22;;;12.51;100.00
37368;BME280;23240;43.210;27.910;2023-04-26T00:20:39;100100.06;;;12.51;100.00
37368;BME280;23240;43.210;27.910;2023-04-26T00:23:05;100098.22;;;12.51;100.00
37368;BME280;23240;43.210;27.910;2023-04-26T00:25:33;100102.75;;;12.51;100.00
37368;BME280;23240;43.210;27.910;2023-04-26T00:27:58;100105.31;;;12.52;100.00
37368;BME280;23240;43.210;27.910;2023-04-26T00:30:23;100097.84;;;12.46;100.00
37368;BME280;23240;43.210;27.910;2023-04-26T00:32:49;100101.44;;;12.37;100.00
37368;BME280;23240;43.210;27.910;2023-04-26T00:35:14;100097.13;;;12.26;100.00
37368;BME280;23240;43.210;27.910;2023-04-26T00:37:39;100111.84;;;12.04;100.00
37368;BME280;23240;43.210;27.910;2023-04-26T00:40:05;100104.81;;;11.94;100.00
37368;BME280;23240;43.210;27.910;2023-04-26T00:42:31;100109.81;;;11.79;100.00
37368;BME280;23240;43.210;27.910;2023-04-26T00:44:56;100107.75;;;11.63;100.00
37368;BME280;23240;43.210;27.910;2023-04-26T00:47:23;100116.56;;;11.46;100.00
37368;BME280;23240;43.210;27.910;2023-04-26T00:49:48;100120.84;;;11.39;100.00
37368;BME280;23240;43.210;27.910;2023-04-26T00:52:14;100118.75;;;11.32;100.00
37368;BME280;23240;43.210;27.910;2023-04-26T00:54:39;100128.47;;;11.33;100.00
37368;BME280;23240;43.210;27.910;2023-04-26T00:57:05;100121.97;;;11.26;100.00
37368;BME280;23240;43.210;27.910;2023-04-26T00:59:31;100123.56;;;11.19;100.00
37368;BME280;23240;43.210;27.910;2023-04-26T01:01:58;100121.03;;;11.18;100.00
37368;BME280;23240;43.210;27.910;2023-04-26T01:04:24;100122.31;;;11.14;100.00
37368;BME280;23240;43.210;27.910;2023-04-26T01:06:51;100124.44;;;11.10;100.00
37368;BME280;23240;43.210;27.910;2023-04-26T01:09:16;100125.41;;;11.09;100.00
37368;BME280;23240;43.210;27.910;2023-04-26T01:11:42;100132.19;;;11.13;100.00
37368;BME280;23240;43.210;27.910;2023-04-26T01:14:08;100123.72;;;11.18;100.00
37368;BME280;23240;43.210;27.910;2023-04-26T01:16:34;100120.31;;;11.16;100.00
37368;BME280;23240;43.210;27.910;2023-04-26T01:19:09;100120.47;;;11.14;100.00
37368;BME280;23240;43.210;27.910;2023-04-26T01:21:37;100117.63;;;11.16;100.00
37368;BME280;23240;43.210;27.910;2023-04-26T01:24:03;100123.72;;;11.18;100.00
37368;BME280;23240;43.210;27.910;2023-04-26T01:26:29;100120.31;;;11.16;100.00
37368;BME280;23240;43.210;27.910;2023-04-26T01:28:54;100119.31;;;11.17;100.00
37368;BME280;23240;43.210;27.910;2023-04-26T01:31:19;100119.47;;;11.15;100.00
37368;BME280;23240;43.210;27.910;2023-04-26T01:33:45;100116.63;;;11.17;100.00
37368;BME280;23240;43.210;27.910;2023-04-26T01:36:10;100114.41;;;11.12;100.00
37368;BME280;23240;43.210;27.910;2023-04-26T01:38:36;100110.75;;;11.13;100.00
37368;BME280;23240;43.210;27.910;2023-04-26T01:41:01;100108.56;;;11.26;100.00
37368;BME280;23240;43.210;27.910;2023-04-26T01:43:26;100103.22;;;11.26;100.00
37368;BME280;23240;43.210;27.910;2023-04-26T01:45:52;100101.53;;;11.25;100.00
37368;BME280;23240;43.210;27.910;2023-04-26T01:48:17;100097.75;;;11.18;100.00
37368;BME280;23240;43.210;27.910;2023-04-26T01:50:42;100096.06;;;11.17;100.00
37368;BME280;23240;43.210;27.910;2023-04-26T01:53:08;100094.94;;;11.10;100.00
37368;BME280;23240;43.210;27.910;2023-04-26T01:55:33;100098.06;;;11.05;100.00
37368;BME280;23240;43.210;27.910;2023-04-26T01:57:58;100099.63;;;11.08;100.00
37368;BME280;23240;43.210;27.910;2023-04-26T02:00:24;100098.34;;;11.12;100.00
37368;BME280;23240;43.210;27.910;2023-04-26T02:02:49;100103.13;;;11.09;100.00
37368;BME280;23240;43.210;27.910;2023-04-26T02:05:18;100094.25;;;11.08;100.00
37368;BME280;23240;43.210;27.910;2023-04-26T02:07:43;100098.63;;;11.09;100.00
37368;BME280;23240;43.210;27.910;2023-04-26T02:10:08;100082.13;;;11.04;100.00
37368;BME280;23240;43.210;27.910;2023-04-26T02:12:34;100092.13;;;11.02;100.00
37368;BME280;23240;43.210;27.910;2023-04-26T02:14:59;100085.81;;;11.03;100.00
37368;BME280;23240;43.210;27.910;2023-04-26T02:17:25;100086.75;;;11.02;100.00
37368;BME280;23240;43.210;27.910;2023-04-26T02:19:51;100091.44;;;11.00;100.00
37368;BME280;23240;43.210;27.910;2023-04-26T02:22:16;100084.97;;;10.93;100.00
37368;BME280;23240;43.210;27.910;2023-04-26T02:24:42;100092.72;;;10.96;100.00
37368;BME280;23240;43.210;27.910;2023-04-26T02:27:07;100090.88;;;10.96;100.00
37368;BME280;23240;43.210;27.910;2023-04-26T02:29:32;100091.31;;;10.92;100.00
37368;BME280;23240;43.210;27.910;2023-04-26T02:31:58;100096.25;;;10.87;100.00
37368;BME280;23240;43.210;27.910;2023-04-26T02:34:23;100091.88;;;10.86;100.00
37368;BME280;23240;43.210;27.910;2023-04-26T02:36:48;100088.78;;;10.80;100.00
37368;BME280;23240;43.210;27.910;2023-04-26T02:39:14;100096.00;;;10.70;100.00
37368;BME280;23240;43.210;27.910;2023-04-26T02:41:39;100096.25;;;10.67;100.00
37368;BME280;23240;43.210;27.910;2023-04-26T02:44:05;100091.91;;;10.66;100.00
37368;BME280;23240;43.210;27.910;2023-04-26T02:46:30;100099.78;;;10.58;100.00
37368;BME280;23240;43.210;27.910;2023-04-26T02:48:55;100100.09;;;10.65;100.00
37368;BME280;23240;43.210;27.910;2023-04-26T02:51:21;100092.75;;;10.67;100.00
37368;BME280;23240;43.210;27.910;2023-04-26T02:53:47;100098.41;;;10.64;100.00
37368;BME280;23240;43.210;27.910;2023-04-26T02:56:12;100102.47;;;10.68;100.00
37368;BME280;23240;43.210;27.910;2023-04-26T02:58:37;100093.56;;;10.67;100.00
37368;BME280;23240;43.210;27.910;2023-04-26T03:01:03;100099.94;;;10.66;100.00
37368;BME280;23240;43.210;27.910;2023-04-26T03:03:29;100092.59;;;10.68;100.00
37368;BME280;23240;43.210;27.910;2023-04-26T03:05:54;100089.22;;;10.57;100.00
37368;BME280;23240;43.210;27.910;2023-04-26T03:08:20;100088.53;;;10.54;100.00
37368;BME280;23240;43.210;27.910;2023-04-26T03:10:45;100087.38;;;10.57;100.00
37368;BME280;23240;43.210;27.910;2023-04-26T03:13:11;100095.84;;;10.62;100.00
37368;BME280;23240;43.210;27.910;2023-04-26T03:15:36;100090.47;;;10.62;100.00
37368;BME280;23240;43.210;27.910;2023-04-26T03:18:02;100097.66;;;10.71;100.00
37368;BME280;23240;43.210;27.910;2023-04-26T03:20:29;100085.69;;;10.75;100.00
37368;BME280;23240;43.210;27.910;2023-04-26T03:22:55;100091.63;;;10.69;100.00
37368;BME280;23240;43.210;27.910;2023-04-26T03:25:20;100088.94;;;10.69;100.00
37368;BME280;23240;43.210;27.910;2023-04-26T03:27:45;100095.41;;;10.67;100.00
37368;BME280;23240;43.210;27.910;2023-04-26T03:30:11;100092.59;;;10.68;100.00
37368;BME280;23240;43.210;27.910;2023-04-26T03:32:37;100092.47;;;10.70;100.00
37368;BME280;23240;43.210;27.910;2023-04-26T03:35:02;100089.63;;;10.71;100.00
37368;BME280;23240;43.210;27.910;2023-04-26T03:37:28;100086.38;;;10.77;100.00
37368;BME280;23240;43.210;27.910;2023-04-26T03:39:53;100084.28;;;10.81;100.00
37368;BME280;23240;43.210;27.910;2023-04-26T03:42:19;100083.84;;;10.86;100.00
37368;BME280;23240;43.210;27.910;2023-04-26T03:44:45;100079.47;;;10.94;100.00
37368;BME280;23240;43.210;27.910;2023-04-26T03:47:10;100080.56;;;11.01;100.00
37368;BME280;23240;43.210;27.910;2023-04-26T03:49:35;100084.81;;;11.04;100.00
37368;BME280;23240;43.210;27.910;2023-04-26T03:52:01;100080.56;;;11.01;100.00
37368;BME280;23240;43.210;27.910;2023-04-26T03:54:26;100079.44;;;11.04;100.00
37368;BME280;23240;43.210;27.910;2023-04-26T03:56:51;100082.28;;;11.02;100.00
37368;BME280;23240;43.210;27.910;2023-04-26T03:59:16;100079.13;;;11.07;100.00
37368;BME280;23240;43.210;27.910;2023-04-26T04:01:42;100077.34;;;11.07;100.00
37368;BME280;23240;43.210;27.910;2023-04-26T04:04:07;100081.09;;;11.15;100.00
37368;BME280;23240;43.210;27.910;2023-04-26T04:06:33;100075.59;;;11.16;100.00
37368;BME280;23240;43.210;27.910;2023-04-26T04:08:59;100081.09;;;11.15;100.00
37368;BME280;23240;43.210;27.910;2023-04-26T04:11:24;100086.72;;;11.21;100.00
37368;BME280;23240;43.210;27.910;2023-04-26T04:13:49;100092.09;;;11.21;100.00
37368;BME280;23240;43.210;27.910;2023-04-26T04:16:15;100095.19;;;11.17;100.00
37368;BME280;23240;43.210;27.910;2023-04-26T04:18:40;100096.34;;;11.14;100.00
37368;BME280;23240;43.210;27.910;2023-04-26T04:21:05;100095.19;;;11.17;100.00
37368;BME280;23240;43.210;27.910;2023-04-26T04:23:31;100088.72;;;11.19;100.00
37368;BME280;23240;43.210;27.910;2023-04-26T04:25:56;100094.78;;;11.12;100.00
37368;BME280;23240;43.210;27.910;2023-04-26T04:28:21;100099.31;;;11.11;100.00
37368;BME280;23240;43.210;27.910;2023-04-26T04:30:47;100094.38;;;11.06;100.00
37368;BME280;23240;43.210;27.910;2023-04-26T04:33:13;100085.06;;;11.11;100.00
37368;BME280;23240;43.210;27.910;2023-04-26T04:35:39;100087.00;;;11.28;100.00
37368;BME280;23240;43.210;27.910;2023-04-26T04:38:05;100087.78;;;11.48;100.00
37368;BME280;23240;43.210;27.910;2023-04-26T04:40:30;100086.63;;;11.50;100.00
37368;BME280;23240;43.210;27.910;2023-04-26T04:42:56;100089.66;;;11.65;100.00
37368;BME280;23240;43.210;27.910;2023-04-26T04:45:21;100085.13;;;11.75;100.00
37368;BME280;23240;43.210;27.910;2023-04-26T04:47:46;100083.34;;;11.94;100.00
37368;BME280;23240;43.210;27.910;2023-04-26T04:50:12;100077.91;;;12.03;100.00
37368;BME280;23240;43.210;27.910;2023-04-26T04:52:38;100069.81;;;12.13;100.00
37368;BME280;23240;43.210;27.910;2023-04-26T04:55:04;100073.97;;;12.25;100.00
37368;BME280;23240;43.210;27.910;2023-04-26T04:57:29;100075.13;;;12.41;100.00
37368;BME280;23240;43.210;27.910;2023-04-26T04:59:56;100074.97;;;12.42;100.00
37368;BME280;23240;43.210;27.910;2023-04-26T05:02:22;100076.59;;;12.53;100.00
37368;BME280;23240;43.210;27.910;2023-04-26T05:04:47;100075.59;;;12.54;100.00
37368;BME280;23240;43.210;27.910;2023-04-26T05:07:12;100075.06;;;12.50;100.00
37368;BME280;23240;43.210;27.910;2023-04-26T05:09:40;100078.66;;;12.59;100.00
37368;BME280;23240;43.210;27.910;2023-04-26T05:12:06;100082.94;;;12.52;100.00
37368;BME280;23240;43.210;27.910;2023-04-26T05:14:31;100085.41;;;12.63;100.00
37368;BME280;23240;43.210;27.910;2023-04-26T05:16:56;100086.09;;;12.47;100.00
37368;BME280;23240;43.210;27.910;2023-04-26T05:19:21;100078.81;;;12.40;100.00
37368;BME280;23240;43.210;27.910;2023-04-26T05:21:47;100089.78;;;12.46;100.00
37368;BME280;23240;43.210;27.910;2023-04-26T05:24:12;100096.75;;;12.57;100.00
37368;BME280;23240;43.210;27.910;2023-04-26T05:26:37;100084.97;;;12.68;100.00
37368;BME280;23240;43.210;27.910;2023-04-26T05:29:03;100082.66;;;12.73;100.00
37368;BME280;23240;43.210;27.910;2023-04-26T05:31:28;100086.72;;;12.77;100.00
37368;BME280;23240;43.210;27.910;2023-04-26T05:33:53;100083.88;;;12.78;100.00
37368;BME280;23240;43.210;27.910;2023-04-26T05:36:19;100093.22;;;12.74;100.00
37368;BME280;23240;43.210;27.910;2023-04-26T05:38:45;100093.22;;;12.74;100.00
37368;BME280;23240;43.210;27.910;2023-04-26T05:41:10;100092.56;;;12.72;100.00
37368;BME280;23240;43.210;27.910;2023-04-26T05:43:36;100098.16;;;12.61;100.00
37368;BME280;23240;43.210;27.910;2023-04-26T05:46:01;100102.22;;;12.65;100.00
37368;BME280;23240;43.210;27.910;2023-04-26T05:48:26;100094.53;;;12.70;100.00
37368;BME280;23240;43.210;27.910;2023-04-26T05:50:54;100107.34;;;12.76;100.00
37368;BME280;23240;43.210;27.910;2023-04-26T05:53:19;100099.81;;;12.80;100.00
37368;BME280;23240;43.210;27.910;2023-04-26T05:55:45;100100.28;;;12.75;100.00
37368;BME280;23240;43.210;27.910;2023-04-26T05:58:10;100109.53;;;12.73;100.00
37368;BME280;23240;43.210;27.910;2023-04-26T06:00:36;100114.72;;;12.74;100.00
37368;BME280;23240;43.210;27.910;2023-04-26T06:03:01;100120.41;;;12.71;100.00
37368;BME280;23240;43.210;27.910;2023-04-26T06:05:27;100116.28;;;12.59;100.00
37368;BME280;23240;43.210;27.910;2023-04-26T06:07:52;100118.50;;;12.64;100.00
37368;BME280;23240;43.210;27.910;2023-04-26T06:10:18;100124.09;;;12.70;100.00
37368;BME280;23240;43.210;27.910;2023-04-26T06:12:43;100121.50;;;12.78;100.00
37368;BME280;23240;43.210;27.910;2023-04-26T06:15:09;100124.34;;;12.77;100.00
37368;BME280;23240;43.210;27.910;2023-04-26T06:17:35;100126.56;;;12.81;100.00
37368;BME280;23240;43.210;27.910;2023-04-26T06:20:00;100126.69;;;12.80;100.00
37368;BME280;23240;43.210;27.910;2023-04-26T06:22:25;100131.06;;;12.81;100.00
37368;BME280;23240;43.210;27.910;2023-04-26T06:24:50;100135.38;;;12.92;100.00
37368;BME280;23240;43.210;27.910;2023-04-26T06:27:16;100127.47;;;12.90;100.00
37368;BME280;23240;43.210;27.910;2023-04-26T06:29:41;100129.56;;;12.96;100.00
37368;BME280;23240;43.210;27.910;2023-04-26T06:32:07;100132.28;;;13.04;100.00
37368;BME280;23240;43.210;27.910;2023-04-26T06:34:33;100131.59;;;13.02;100.00
37368;BME280;23240;43.210;27.910;2023-04-26T06:36:58;100133.81;;;13.07;100.00
37368;BME280;23240;43.210;27.910;2023-04-26T06:39:24;100135.03;;;13.12;100.00
37368;BME280;23240;43.210;27.910;2023-04-26T06:41:49;100130.50;;;13.13;100.00
37368;BME280;23240;43.210;27.910;2023-04-26T06:44:14;100128.34;;;13.17;100.00
37368;BME280;23240;43.210;27.910;2023-04-26T06:46:40;100139.03;;;13.26;100.00
37368;BME280;23240;43.210;27.910;2023-04-26T06:49:05;100143.25;;;13.29;100.00
37368;BME280;23240;43.210;27.910;2023-04-26T06:51:30;100144.88;;;13.40;100.00
37368;BME280;23240;43.210;27.910;2023-04-26T06:53:56;100126.03;;;13.40;100.00
37368;BME280;23240;43.210;27.910;2023-04-26T06:56:25;100131.06;;;13.43;100.00
37368;BME280;23240;43.210;27.910;2023-04-26T06:58:57;100134.78;;;13.42;100.00
37368;BME280;23240;43.210;27.910;2023-04-26T07:01:23;100129.41;;;13.42;100.00
37368;BME280;23240;43.210;27.910;2023-04-26T07:03:48;100134.88;;;13.58;100.00
37368;BME280;23240;43.210;27.910;2023-04-26T07:06:13;100136.97;;;13.72;100.00
37368;BME280;23240;43.210;27.910;2023-04-26T07:08:39;100135.22;;;13.97;100.00
37368;BME280;23240;43.210;27.910;2023-04-26T07:11:13;100141.31;;;13.99;100.00
37368;BME280;23240;43.210;27.910;2023-04-26T07:13:38;100136.00;;;14.24;100.00
37368;BME280;23240;43.210;27.910;2023-04-26T07:16:04;100142.47;;;14.47;100.00
37368;BME280;23240;43.210;27.910;2023-04-26T07:18:29;100126.72;;;14.60;100.00
37368;BME280;23240;43.210;27.910;2023-04-26T07:20:55;100131.44;;;14.75;100.00
37368;BME280;23240;43.210;27.910;2023-04-26T07:23:20;100129.59;;;14.75;100.00
37368;BME280;23240;43.210;27.910;2023-04-26T07:25:46;100125.56;;;14.96;100.00
37368;BME280;23240;43.210;27.910;2023-04-26T07:28:11;100122.84;;;14.87;100.00
37368;BME280;23240;43.210;27.910;2023-04-26T07:30:36;100126.72;;;14.93;100.00
37368;BME280;23240;43.210;27.910;2023-04-26T07:33:02;100131.97;;;14.95;100.00
37368;BME280;23240;43.210;27.910;2023-04-26T07:35:27;100119.47;;;15.02;100.00
37368;BME280;23240;43.210;27.910;2023-04-26T07:37:52;100123.84;;;15.19;100.00
37368;BME280;23240;43.210;27.910;2023-04-26T07:40:18;100125.03;;;15.25;100.00
37368;BME280;23240;43.210;27.910;2023-04-26T07:42:43;100125.53;;;15.28;100.00
37368;BME280;23240;43.210;27.910;2023-04-26T07:45:09;100119.78;;;15.31;100.00
37368;BME280;23240;43.210;27.910;2023-04-26T07:47:34;100120.44;;;15.41;100.00
37368;BME280;23240;43.210;27.910;2023-04-26T07:50:00;100118.06;;;15.47;100.00
37368;BME280;23240;43.210;27.910;2023-04-26T07:52:25;100117.41;;;15.36;100.00
37368;BME280;23240;43.210;27.910;2023-04-26T07:54:50;100114.41;;;15.95;100.00
37368;BME280;23240;43.210;27.910;2023-04-26T07:57:16;100112.88;;;16.32;100.00
37368;BME280;23240;43.210;27.910;2023-04-26T07:59:41;100112.72;;;16.56;100.00
37368;BME280;23240;43.210;27.910;2023-04-26T08:02:06;100122.38;;;16.82;100.00
37368;BME280;23240;43.210;27.910;2023-04-26T08:04:32;100117.97;;;17.04;100.00
37368;BME280;23240;43.210;27.910;2023-04-26T08:06:58;100114.41;;;17.41;100.00
37368;BME280;23240;43.210;27.910;2023-04-26T08:09:23;100117.03;;;17.11;100.00
37368;BME280;23240;43.210;27.910;2023-04-26T08:11:52;100116.72;;;16.68;100.00
37368;BME280;23240;43.210;27.910;2023-04-26T08:14:17;100108.34;;;16.55;100.00
37368;BME280;23240;43.210;27.910;2023-04-26T08:16:42;100109.19;;;16.56;100.00
37368;BME280;23240;43.210;27.910;2023-04-26T08:19:08;100112.19;;;16.61;100.00
37368;BME280;23240;43.210;27.910;2023-04-26T08:21:33;100115.09;;;16.59;100.00
37368;BME280;23240;43.210;27.910;2023-04-26T08:23:58;100115.50;;;16.71;100.00
37368;BME280;23240;43.210;27.910;2023-04-26T08:26:24;100108.84;;;16.82;100.00
37368;BME280;23240;43.210;27.910;2023-04-26T08:28:49;100116.06;;;16.58;100.00
37368;BME280;23240;43.210;27.910;2023-04-26T08:31:15;100107.66;;;16.84;100.00
37368;BME280;23240;43.210;27.910;2023-04-26T08:33:40;100111.78;;;16.72;100.00
37368;BME280;23240;43.210;27.910;2023-04-26T08:36:06;100105.59;;;16.86;100.00
37368;BME280;23240;43.210;27.910;2023-04-26T08:38:31;100109.75;;;16.74;100.00
37368;BME280;23240;43.210;27.910;2023-04-26T08:40:58;100107.38;;;16.71;100.00
37368;BME280;23240;43.210;27.910;2023-04-26T08:43:25;100112.19;;;16.61;100.00
37368;BME280;23240;43.210;27.910;2023-04-26T08:45:52;100109.28;;;16.39;100.00
37368;BME280;23240;43.210;27.910;2023-04-26T08:48:17;100114.31;;;16.42;100.00
37368;BME280;23240;43.210;27.910;2023-04-26T08:50:43;100113.56;;;16.57;100.00
37368;BME280;23240;43.210;27.910;2023-04-26T08:53:13;100110.25;;;16.47;100.00
37368;BME280;23240;43.210;27.910;2023-04-26T08:55:38;100111.59;;;16.51;100.00
37368;BME280;23240;43.210;27.910;2023-04-26T08:58:05;100110.06;;;16.25;100.00
37368;BME280;23240;43.210;27.910;2023-04-26T09:00:31;100114.41;;;15.95;100.00
37368;BME280;23240;43.210;27.910;2023-04-26T09:02:57;100111.75;;;16.18;100.00
37368;BME280;23240;43.210;27.910;2023-04-26T09:05:22;100110.16;;;16.32;100.00
37368;BME280;23240;43.210;27.910;2023-04-26T09:07:48;100115.88;;;16.37;100.00
37368;BME280;23240;43.210;27.910;2023-04-26T09:10:18;100117.00;;;16.51;100.00
37368;BME280;23240;43.210;27.910;2023-04-26T09:12:52;100116.41;;;16.63;100.00
37368;BME280;23240;43.210;27.910;2023-04-26T09:15:19;100109.81;;;16.58;100.00
37368;BME280;23240;43.210;27.910;2023-04-26T09:17:45;100114.88;;;16.61;100.00
37368;BME280;23240;43.210;27.910;2023-04-26T09:20:29;100113.28;;;16.43;100.00
37368;BME280;23240;43.210;27.910;2023-04-26T09:23:05;100117.81;;;16.51;100.00
37368;BME280;23240;43.210;27.910;2023-04-26T09:25:31;100123.00;;;16.61;100.00
37368;BME280;23240;43.210;27.910;2023-04-26T09:27:57;100125.16;;;16.74;100.00
37368;BME280;23240;43.210;27.910;2023-04-26T09:30:23;100124.31;;;16.65;100.00
37368;BME280;23240;43.210;27.910;2023-04-26T09:35:19;100118.28;;;16.86;100.00
37368;BME280;23240;43.210;27.910;2023-04-26T09:37:54;100111.59;;;16.96;100.00
37368;BME280;23240;43.210;27.910;2023-04-26T09:40:21;100117.53;;;17.15;100.00
37368;BME280;23240;43.210;27.910;2023-04-26T09:42:46;100110.81;;;17.26;100.00
37368;BME280;23240;43.210;27.910;2023-04-26T09:45:20;100107.50;;;17.38;100.00
37368;BME280;23240;43.210;27.910;2023-04-26T09:47:46;100114.88;;;17.44;100.00
37368;BME280;23240;43.210;27.910;2023-04-26T09:50:11;100113.75;;;17.54;100.00
37368;BME280;23240;43.210;27.910;2023-04-26T09:52:42;100115.81;;;17.52;100.00
37368;BME280;23240;43.210;27.910;2023-04-26T09:55:08;100118.69;;;17.50;100.00
37368;BME280;23240;43.210;27.910;2023-04-26T09:57:41;100120.28;;;17.44;100.00
37368;BME280;23240;43.210;27.910;2023-04-26T10:00:07;100118.59;;;17.29;100.00
37368;BME280;23240;43.210;27.910;2023-04-26T10:02:36;100115.34;;;17.33;100.00
37368;BME280;23240;43.210;27.910;2023-04-26T10:05:02;100115.63;;;17.38;100.00
37368;BME280;23240;43.210;27.910;2023-04-26T10:07:28;100116.88;;;17.51;100.00
37368;BME280;23240;43.210;27.910;2023-04-26T10:09:54;100107.22;;;17.33;100.00
37368;BME280;23240;43.210;27.910;2023-04-26T10:12:21;100109.50;;;17.07;100.00
37368;BME280;23240;43.210;27.910;2023-04-26T10:14:46;100109.97;;;16.87;100.00
37368;BME280;23240;43.210;27.910;2023-04-26T10:17:12;100106.31;;;16.80;100.00
37368;BME280;23240;43.210;27.910;2023-04-26T10:19:41;100111.47;;;16.67;100.00
37368;BME280;23240;43.210;27.910;2023-04-26T10:22:32;100106.97;;;16.28;100.00
37368;BME280;23240;43.210;27.910;2023-04-26T10:24:57;100105.91;;;16.37;100.00
37368;BME280;23240;43.210;27.910;2023-04-26T10:30:07;100107.66;;;16.30;100.00
37368;BME280;23240;43.210;27.910;2023-04-26T10:32:39;100102.91;;;16.32;100.00
37368;BME280;23240;43.210;27.910;2023-04-26T10:35:18;100107.81;;;16.29;100.00
37368;BME280;23240;43.210;27.910;2023-04-26T10:40:25;100098.09;;;16.42;100.00
37368;BME280;23240;43.210;27.910;2023-04-26T10:45:35;100102.31;;;17.14;100.00
37368;BME280;23240;43.210;27.910;2023-04-26T10:48:14;100102.81;;;17.32;100.00
37368;BME280;23240;43.210;27.910;2023-04-26T10:53:26;100103.84;;;17.16;100.00
37368;BME280;23240;43.210;27.910;2023-04-26T10:55:52;100107.97;;;17.27;100.00
37368;BME280;23240;43.210;27.910;2023-04-26T11:03:28;100102.78;;;17.70;100.00
37368;BME280;23240;43.210;27.910;2023-04-26T11:05:54;100107.16;;;17.56;100.00
37368;BME280;23240;43.210;27.910;2023-04-26T11:08:23;100110.97;;;17.62;100.00
37368;BME280;23240;43.210;27.910;2023-04-26T11:10:57;100108.63;;;17.59;100.00
37368;BME280;23240;43.210;27.910;2023-04-26T11:13:22;100100.78;;;17.64;100.00
37368;BME280;23240;43.210;27.910;2023-04-26T11:15:51;100099.88;;;18.01;100.00
37368;BME280;23240;43.210;27.910;2023-04-26T11:18:20;100103.31;;;18.46;100.00
37368;BME280;23240;43.210;27.910;2023-04-26T11:20:45;100105.97;;;18.39;100.00
37368;BME280;23240;43.210;27.910;2023-04-26T11:23:11;100106.94;;;18.17;100.00
37368;BME280;23240;43.210;27.910;2023-04-26T11:25:37;100104.44;;;18.15;100.00
37368;BME280;23240;43.210;27.910;2023-04-26T11:28:03;100099.38;;;18.48;100.00
37368;BME280;23240;43.210;27.910;2023-04-26T11:30:30;100099.91;;;18.59;100.00
37368;BME280;23240;43.210;27.910;2023-04-26T11:32:56;100101.28;;;18.69;100.00
37368;BME280;23240;43.210;27.910;2023-04-26T11:35:22;100102.00;;;18.78;100.00
37368;BME280;23240;43.210;27.910;2023-04-26T11:37:47;100103.25;;;18.61;100.00
37368;BME280;23240;43.210;27.910;2023-04-26T11:40:15;100102.31;;;18.32;100.00
37368;BME280;23240;43.210;27.910;2023-04-26T11:42:42;100110.50;;;18.03;100.00
37368;BME280;23240;43.210;27.910;2023-04-26T11:45:07;100109.22;;;17.84;100.00
37368;BME280;23240;43.210;27.910;2023-04-26T11:47:33;100095.56;;;17.62;100.00
37368;BME280;23240;43.210;27.910;2023-04-26T11:49:59;100094.72;;;17.32;100.00
37368;BME280;23240;43.210;27.910;2023-04-26T11:52:25;100096.00;;;17.21;100.00
37368;BME280;23240;43.210;27.910;2023-04-26T11:54:58;100098.88;;;17.20;100.00
37368;BME280;23240;43.210;27.910;2023-04-26T11:57:25;100091.06;;;17.40;100.00
37368;BME280;23240;43.210;27.910;2023-04-26T12:00:05;100097.63;;;17.45;100.00
37368;BME280;23240;43.210;27.910;2023-04-26T12:02:30;100089.78;;;17.51;100.00
37368;BME280;23240;43.210;27.910;2023-04-26T12:04:59;100086.03;;;17.37;100.00
37368;BME280;23240;43.210;27.910;2023-04-26T12:07:24;100092.44;;;17.21;100.00
37368;BME280;23240;43.210;27.910;2023-04-26T12:09:50;100096.09;;;16.90;100.00
37368;BME280;23240;43.210;27.910;2023-04-26T12:12:15;100096.31;;;16.58;100.00
37368;BME280;23240;43.210;27.910;2023-04-26T12:14:40;100097.03;;;16.52;100.00
37368;BME280;23240;43.210;27.910;2023-04-26T12:17:06;100094.25;;;16.37;100.00
37368;BME280;23240;43.210;27.910;2023-04-26T12:19:35;100098.94;;;16.20;100.00
37368;BME280;23240;43.210;27.910;2023-04-26T12:22:01;100094.94;;;16.08;100.00
37368;BME280;23240;43.210;27.910;2023-04-26T12:24:28;100099.75;;;15.89;100.00
37368;BME280;23240;43.210;27.910;2023-04-26T12:26:54;100108.09;;;15.55;100.00
37368;BME280;23240;43.210;27.910;2023-04-26T12:29:20;100105.78;;;15.36;100.00
37368;BME280;23240;43.210;27.910;2023-04-26T12:31:45;100102.75;;;15.23;100.00
37368;BME280;23240;43.210;27.910;2023-04-26T12:34:11;100104.63;;;15.22;100.00
37368;BME280;23240;43.210;27.910;2023-04-26T12:36:37;100100.06;;;15.23;100.00
37368;BME280;23240;43.210;27.910;2023-04-26T12:39:02;100091.31;;;15.12;100.00
37368;BME280;23240;43.210;27.910;2023-04-26T12:41:29;100097.75;;;14.95;100.00
37368;BME280;23240;43.210;27.910;2023-04-26T12:43:54;100096.25;;;14.84;100.00